Time;durP1;ratioP1;P1;durP2;ratioP2;P2;SDS_P1;SDS_P2;PMS_P1;PMS_P2;Temp;Humidity;BMP_temperature;BMP_pressure;BME280_temperature;BME280_humidity;BME280_pressure;Samples;Min_cycle;Max_cycle;Signal;HPM_P1;HPM_P2
2024/01/28 00:00:47;;;;;;;5.47;3.10;;;13.70;99.90;;;;;;4594249;19;20526;-77
2024/01/28 00:02:41;;;;;;;6.43;3.97;;;13.70;99.90;;;;;;4594230;19;20317;-77
2024/01/28 00:04:15;;;;;;;6.53;3.60;;;13.70;99.90;;;;;;4593301;19;20077;-77
2024/01/28 00:05:51;;;;;;;7.03;3.47;;;13.70;99.90;;;;;;4594114;19;20038;-77
2024/01/28 00:07:26;;;;;;;10.23;6.27;;;13.60;99.90;;;;;;4592333;19;20017;-77
2024/01/28 00:09:00;;;;;;;13.33;9.13;;;13.60;99.90;;;;;;4592608;19;19995;-77
2024/01/28 00:10:35;;;;;;;10.50;6.33;;;13.60;99.90;;;;;;4594012;19;20027;-77
2024/01/28 00:12:10;;;;;;;14.87;8.07;;;13.50;99.90;;;;;;4594194;19;20081;-77
2024/01/28 00:13:44;;;;;;;12.40;6.87;;;13.50;99.90;;;;;;4593842;19;20015;-77
2024/01/28 00:15:19;;;;;;;10.67;6.67;;;13.50;99.90;;;;;;4593853;19;20002;-77
2024/01/28 00:16:53;;;;;;;14.67;9.43;;;13.50;99.90;;;;;;4593798;19;20009;-77
2024/01/28 00:18:27;;;;;;;11.30;7.07;;;13.50;99.90;;;;;;4593809;19;20004;-77
2024/01/28 00:20:05;;;;;;;21.80;12.17;;;13.50;99.90;;;;;;4593836;19;20011;-77
2024/01/28 00:21:39;;;;;;;21.27;11.67;;;13.40;99.90;;;;;;4592681;19;20006;-77
2024/01/28 00:23:14;;;;;;;20.57;13.73;;;13.40;99.90;;;;;;4593175;19;19999;-77
2024/01/28 00:24:50;;;;;;;15.23;9.93;;;13.40;99.90;;;;;;4593674;19;20311;-77
2024/01/28 00:26:24;;;;;;;23.43;19.43;;;13.40;99.90;;;;;;4593853;19;19995;-76
2024/01/28 00:27:58;;;;;;;23.33;18.90;;;13.40;99.90;;;;;;4592948;19;20075;-77
2024/01/28 00:29:34;;;;;;;9.50;6.63;;;13.40;99.90;;;;;;4593481;19;20010;-77
2024/01/28 00:31:10;;;;;;;15.47;9.83;;;13.40;99.90;;;;;;4593779;19;20497;-77
2024/01/28 00:32:46;;;;;;;9.27;6.10;;;13.40;99.90;;;;;;4592339;19;19999;-77
2024/01/28 00:34:21;;;;;;;15.07;12.87;;;13.40;99.90;;;;;;4593428;19;20009;-77
2024/01/28 00:35:55;;;;;;;11.53;9.10;;;13.40;99.90;;;;;;4593657;19;20358;-77
2024/01/28 00:37:29;;;;;;;13.73;10.50;;;13.40;99.90;;;;;;4592849;19;20006;-77
2024/01/28 00:39:06;;;;;;;11.00;7.37;;;13.40;99.90;;;;;;4593409;19;20449;-77
2024/01/28 00:40:40;;;;;;;12.67;9.10;;;13.40;99.90;;;;;;4593398;19;20020;-77
2024/01/28 00:42:16;;;;;;;8.07;5.17;;;13.30;99.90;;;;;;4593251;19;20006;-77
2024/01/28 00:43:52;;;;;;;8.97;5.70;;;13.40;99.90;;;;;;4592735;19;20429;-77
2024/01/28 00:45:42;;;;;;;11.03;6.63;;;13.40;99.90;;;;;;4591819;19;20010;-77
2024/01/28 00:47:18;;;;;;;10.77;5.68;;;13.40;99.90;;;;;;4591385;19;20027;-77
2024/01/28 00:48:52;;;;;;;7.30;4.10;;;13.40;99.90;;;;;;4591810;19;20021;-77
2024/01/28 00:50:26;;;;;;;8.43;5.23;;;13.30;99.90;;;;;;4593352;19;20330;-77
2024/01/28 00:52:02;;;;;;;7.80;4.70;;;13.40;99.90;;;;;;4593340;19;20006;-77
2024/01/28 00:53:36;;;;;;;9.73;6.20;;;13.40;99.90;;;;;;4593037;19;20005;-77
2024/01/28 00:55:10;;;;;;;9.13;5.13;;;13.30;99.90;;;;;;4591947;19;20054;-77
2024/01/28 00:56:45;;;;;;;6.80;3.87;;;13.30;99.90;;;;;;4592648;19;19999;-77
2024/01/28 00:58:19;;;;;;;4.83;2.73;;;13.40;99.90;;;;;;4591677;19;20011;-77
2024/01/28 00:59:54;;;;;;;3.60;1.90;;;13.30;99.90;;;;;;4592792;19;20014;-77
2024/01/28 01:17:20;;;;;;;4.20;2.33;;;13.30;99.90;;;;;;4548490;19;20011;-79
2024/01/28 01:18:55;;;;;;;4.83;2.43;;;13.30;99.90;;;;;;4591969;19;20014;-79
2024/01/28 01:20:29;;;;;;;3.77;2.10;;;13.30;99.90;;;;;;4592637;19;20002;-78
2024/01/28 01:22:04;;;;;;;5.20;2.47;;;13.30;99.90;;;;;;4592523;19;20429;-78
2024/01/28 01:23:39;;;;;;;4.33;2.63;;;13.30;99.90;;;;;;4592475;19;20037;-78
2024/01/28 01:25:14;;;;;;;4.83;2.67;;;13.30;99.90;;;;;;4592420;19;20002;-78
2024/01/28 01:26:49;;;;;;;4.83;2.43;;;13.30;99.90;;;;;;4591366;19;20025;-78
2024/01/28 01:28:31;;;;;;;3.87;2.30;;;13.30;99.90;;;;;;4591445;19;20023;-78
2024/01/28 01:30:06;;;;;;;3.95;1.70;;;13.30;99.90;;;;;;4591435;19;20009;-78
2024/01/28 01:31:42;;;;;;;5.87;2.07;;;13.30;99.90;;;;;;4592339;19;20088;-78
2024/01/28 01:33:15;;;;;;;4.70;2.80;;;13.30;99.90;;;;;;4592512;19;20002;-78
2024/01/28 01:34:52;;;;;;;7.20;4.43;;;13.30;99.90;;;;;;4592569;19;20334;-78
2024/01/28 01:36:27;;;;;;;7.83;4.03;;;13.30;99.90;;;;;;4592190;19;20006;-78
2024/01/28 01:38:01;;;;;;;8.20;5.13;;;13.30;99.90;;;;;;4591836;19;20006;-78
2024/01/28 01:39:34;;;;;;;8.13;5.60;;;13.30;99.90;;;;;;4592201;19;20008;-78
2024/01/28 01:41:09;;;;;;;5.17;2.07;;;13.30;99.90;;;;;;4592467;19;20079;-78
2024/01/28 01:42:43;;;;;;;10.27;6.97;;;13.30;99.90;;;;;;4592133;19;20021;-78
2024/01/28 01:44:17;;;;;;;10.63;6.50;;;13.30;99.90;;;;;;4591507;19;20035;-78
2024/01/28 01:45:53;;;;;;;10.23;7.80;;;13.20;99.90;;;;;;4592095;19;20003;-78
2024/01/28 01:47:27;;;;;;;7.70;4.63;;;13.30;99.90;;;;;;4590397;19;20453;-78
2024/01/28 01:49:01;;;;;;;6.07;4.13;;;13.30;99.90;;;;;;4591971;19;20003;-78
2024/01/28 01:50:37;;;;;;;5.53;3.63;;;13.30;99.90;;;;;;4592391;19;20011;-78
2024/01/28 01:52:10;;;;;;;5.33;3.13;;;13.30;99.90;;;;;;4590973;19;20468;-78
2024/01/28 01:53:45;;;;;;;5.87;4.40;;;13.30;99.90;;;;;;4591850;19;20003;-78
2024/01/28 01:55:22;;;;;;;4.07;2.47;;;13.30;99.90;;;;;;4590910;19;20477;-78
2024/01/28 01:56:56;;;;;;;4.77;2.57;;;13.30;99.90;;;;;;4591883;19;20017;-78
2024/01/28 01:58:30;;;;;;;5.90;2.87;;;13.30;99.90;;;;;;4589742;19;20006;-78
2024/01/28 02:00:06;;;;;;;4.67;2.30;;;13.30;99.90;;;;;;4591504;19;20084;-78
2024/01/28 02:01:40;;;;;;;3.60;2.20;;;13.20;99.90;;;;;;4591760;19;20007;-78
2024/01/28 02:03:14;;;;;;;4.67;1.70;;;13.30;99.90;;;;;;4591813;19;20007;-78
2024/01/28 02:04:49;;;;;;;8.17;4.17;;;13.20;99.90;;;;;;4590487;19;20082;-78
2024/01/28 02:06:24;;;;;;;7.77;4.03;;;13.30;99.90;;;;;;4590683;19;20022;-78
2024/01/28 02:07:59;;;;;;;7.00;4.50;;;13.20;99.90;;;;;;4589885;19;20003;-78
2024/01/28 02:09:34;;;;;;;8.93;5.23;;;13.30;99.90;;;;;;4591347;19;20062;-78
2024/01/28 02:11:08;;;;;;;8.33;5.07;;;13.20;99.90;;;;;;4590326;19;20006;-78
2024/01/28 02:12:47;;;;;;;5.37;3.40;;;13.20;99.90;;;;;;4590153;19;20010;-78
2024/01/28 02:14:29;;;;;;;4.60;2.97;;;13.20;99.90;;;;;;4590589;19;20333;-78
2024/01/28 02:16:03;;;;;;;4.87;2.97;;;13.30;99.90;;;;;;4591710;19;20306;-78
2024/01/28 02:17:37;;;;;;;3.80;2.70;;;13.20;99.90;;;;;;4589505;19;20042;-78
2024/01/28 02:19:12;;;;;;;5.27;2.93;;;13.20;99.90;;;;;;4590194;19;20089;-78
2024/01/28 02:20:46;;;;;;;4.37;2.37;;;13.20;99.90;;;;;;4591425;19;20012;-78
2024/01/28 02:22:19;;;;;;;3.40;2.30;;;13.20;99.90;;;;;;4591433;19;20002;-78
2024/01/28 02:23:54;;;;;;;2.73;1.67;;;13.20;99.90;;;;;;4589854;19;20418;-78
2024/01/28 02:25:29;;;;;;;5.03;2.23;;;13.20;99.90;;;;;;4591354;19;20002;-78
2024/01/28 02:27:04;;;;;;;2.97;1.90;;;13.20;99.90;;;;;;4590371;19;20057;-78
2024/01/28 02:28:40;;;;;;;2.87;1.70;;;13.20;99.90;;;;;;4589011;19;20010;-78
2024/01/28 02:30:15;;;;;;;2.57;1.23;;;13.20;99.90;;;;;;4591083;19;20066;-78
2024/01/28 02:31:49;;;;;;;3.50;1.67;;;13.20;99.90;;;;;;4592733;19;20002;-78
2024/01/28 02:33:24;;;;;;;3.80;1.57;;;13.20;99.90;;;;;;4595850;19;20021;-78
2024/01/28 02:34:58;;;;;;;3.50;1.73;;;13.20;99.90;;;;;;4595924;19;20013;-78
2024/01/28 02:36:32;;;;;;;3.17;1.73;;;13.20;99.90;;;;;;4595750;19;20011;-78
2024/01/28 02:38:08;;;;;;;3.97;1.90;;;13.20;99.90;;;;;;4594782;19;20003;-78
2024/01/28 02:39:42;;;;;;;4.83;3.23;;;13.20;99.90;;;;;;4595818;19;20004;-78
2024/01/28 02:41:16;;;;;;;3.53;1.97;;;13.20;99.90;;;;;;4594645;19;19999;-78
2024/01/28 02:42:52;;;;;;;5.03;2.13;;;13.20;99.90;;;;;;4594769;19;20014;-78
2024/01/28 02:44:26;;;;;;;4.10;1.90;;;13.20;99.90;;;;;;4593077;19;20003;-77
2024/01/28 02:46:00;;;;;;;5.73;2.70;;;13.20;99.90;;;;;;4595352;19;20009;-78
2024/01/28 02:47:36;;;;;;;5.87;3.03;;;13.20;99.90;;;;;;4595444;19;20404;-78
2024/01/28 02:49:10;;;;;;;5.07;2.73;;;13.20;99.90;;;;;;4595591;19;20007;-78
2024/01/28 02:50:46;;;;;;;3.73;2.07;;;13.20;99.90;;;;;;4595478;19;20011;-78
2024/01/28 02:52:22;;;;;;;4.33;1.47;;;13.20;99.90;;;;;;4595895;19;20014;-78
2024/01/28 02:53:56;;;;;;;2.67;1.30;;;13.20;99.90;;;;;;4595787;19;20009;-77
2024/01/28 02:55:30;;;;;;;2.50;1.10;;;13.20;99.90;;;;;;4594440;19;20003;-78
2024/01/28 02:57:06;;;;;;;5.23;3.03;;;13.20;99.90;;;;;;4595181;19;20006;-78
2024/01/28 02:58:40;;;;;;;7.43;4.17;;;13.20;99.90;;;;;;4593724;19;20351;-78
2024/01/28 03:00:14;;;;;;;6.40;3.27;;;13.20;99.90;;;;;;4595689;19;20425;-77
2024/01/28 03:01:50;;;;;;;13.20;5.77;;;13.20;99.90;;;;;;4595510;19;20009;-78
2024/01/28 03:03:23;;;;;;;26.93;12.37;;;13.20;99.90;;;;;;4593833;19;20019;-78
2024/01/28 03:04:58;;;;;;;25.60;12.90;;;13.20;99.90;;;;;;4594875;19;20089;-78
2024/01/28 03:06:33;;;;;;;22.67;11.67;;;13.20;99.90;;;;;;4595229;19;20006;-78
2024/01/28 03:08:08;;;;;;;20.80;9.60;;;13.20;99.90;;;;;;4592812;19;20421;-78
2024/01/28 03:09:42;;;;;;;15.50;7.33;;;13.20;99.90;;;;;;4594909;19;20003;-77
2024/01/28 03:11:18;;;;;;;8.17;4.03;;;13.20;99.90;;;;;;4595199;19;20402;-78
2024/01/28 03:12:52;;;;;;;5.57;3.00;;;13.20;99.90;;;;;;4593916;19;20002;-78
2024/01/28 03:14:26;;;;;;;6.53;3.20;;;13.20;99.90;;;;;;4594020;19;20009;-78
2024/01/28 03:16:02;;;;;;;5.43;3.07;;;13.20;99.90;;;;;;4594735;19;20019;-78
2024/01/28 03:17:35;;;;;;;14.37;6.60;;;13.20;99.90;;;;;;4593181;19;20021;-78
2024/01/28 03:19:10;;;;;;;6.77;4.57;;;13.20;99.90;;;;;;4594673;19;20010;-78
2024/01/28 03:20:46;;;;;;;7.37;3.77;;;13.20;99.90;;;;;;4595208;19;20417;-79
2024/01/28 03:22:21;;;;;;;6.27;3.37;;;13.20;99.90;;;;;;4594824;19;20014;-78
2024/01/28 03:23:56;;;;;;;7.40;4.00;;;13.20;99.90;;;;;;4594253;19;19995;-78
2024/01/28 03:25:31;;;;;;;12.03;5.43;;;13.20;99.90;;;;;;4595239;19;20007;-78
2024/01/28 03:27:06;;;;;;;13.07;6.90;;;13.20;99.90;;;;;;4595020;19;20008;-78
2024/01/28 03:28:40;;;;;;;14.30;7.97;;;13.20;99.90;;;;;;4593201;19;20072;-78
2024/01/28 03:30:16;;;;;;;13.07;7.90;;;13.20;99.90;;;;;;4594981;19;20015;-78
2024/01/28 03:31:51;;;;;;;13.53;8.30;;;13.20;99.90;;;;;;4594835;19;20007;-78
2024/01/28 03:33:25;;;;;;;10.90;6.73;;;13.20;99.90;;;;;;4594736;19;20003;-78
2024/01/28 03:35:01;;;;;;;10.77;6.23;;;13.20;99.90;;;;;;4593172;19;20030;-78
2024/01/28 03:36:35;;;;;;;10.10;5.07;;;13.20;99.90;;;;;;4594422;19;20491;-78
2024/01/28 03:38:09;;;;;;;11.30;6.60;;;13.20;99.90;;;;;;4593529;19;20437;-78
2024/01/28 03:39:45;;;;;;;12.73;6.87;;;13.20;99.90;;;;;;4594653;19;20437;-78
2024/01/28 03:41:19;;;;;;;9.70;5.90;;;13.20;99.90;;;;;;4594797;19;20454;-78
2024/01/28 03:42:55;;;;;;;10.90;6.33;;;13.20;99.90;;;;;;4593840;19;20012;-78
2024/01/28 03:44:31;;;;;;;10.40;6.23;;;13.20;99.90;;;;;;4593401;19;20070;-78
2024/01/28 03:46:07;;;;;;;10.60;6.27;;;13.20;99.90;;;;;;4592992;19;20018;-78
2024/01/28 03:47:41;;;;;;;10.30;5.77;;;13.20;99.90;;;;;;4593813;19;20024;-78
2024/01/28 03:49:18;;;;;;;10.60;5.90;;;13.20;99.90;;;;;;4594616;19;20418;-78
2024/01/28 03:50:51;;;;;;;8.37;4.93;;;13.20;99.90;;;;;;4594581;19;20007;-78
2024/01/28 03:52:25;;;;;;;9.23;5.30;;;13.20;99.90;;;;;;4594274;19;20015;-78
2024/01/28 03:54:00;;;;;;;9.27;5.00;;;13.20;99.90;;;;;;4595012;19;20013;-78
2024/01/28 03:55:34;;;;;;;10.30;5.60;;;13.20;99.90;;;;;;4594078;19;20017;-78
2024/01/28 03:57:10;;;;;;;8.17;5.00;;;13.20;99.90;;;;;;4594391;19;20338;-78
2024/01/28 03:58:47;;;;;;;10.47;5.60;;;13.20;99.90;;;;;;4594463;19;20007;-78
2024/01/28 04:00:22;;;;;;;9.20;6.40;;;13.20;99.90;;;;;;4594426;19;19998;-78
2024/01/28 04:01:57;;;;;;;10.23;5.87;;;13.20;99.90;;;;;;4592969;19;20027;-78
2024/01/28 04:03:35;;;;;;;10.53;6.63;;;13.20;99.90;;;;;;4592990;19;20014;-78
2024/01/28 04:05:09;;;;;;;11.13;6.13;;;13.20;99.90;;;;;;4594264;19;19999;-78
2024/01/28 04:06:44;;;;;;;8.37;5.93;;;13.20;99.90;;;;;;4594198;19;20003;-78
2024/01/28 04:08:19;;;;;;;15.60;8.40;;;13.20;99.90;;;;;;4592842;19;20014;-78
2024/01/28 04:09:53;;;;;;;13.30;6.30;;;13.20;99.90;;;;;;4594232;19;19999;-78
2024/01/28 04:11:28;;;;;;;13.77;7.37;;;13.20;99.90;;;;;;4593878;19;20015;-78
2024/01/28 04:13:03;;;;;;;16.37;8.20;;;13.20;99.90;;;;;;4593882;19;20066;-78
2024/01/28 04:14:38;;;;;;;18.70;7.83;;;13.20;99.90;;;;;;4594096;19;20058;-78
2024/01/28 04:16:12;;;;;;;10.53;5.40;;;13.30;99.90;;;;;;4594117;19;20211;-78
2024/01/28 04:17:47;;;;;;;10.10;5.33;;;13.30;99.90;;;;;;4592927;19;20041;-78
2024/01/28 04:19:21;;;;;;;9.00;4.87;;;13.30;99.90;;;;;;4594079;19;20006;-78
2024/01/28 04:20:56;;;;;;;6.50;3.67;;;13.40;99.90;;;;;;4593951;19;20015;-78
2024/01/28 04:22:32;;;;;;;11.03;5.40;;;13.40;99.90;;;;;;4593965;19;20421;-78
2024/01/28 04:24:06;;;;;;;8.60;4.50;;;13.40;99.90;;;;;;4593044;19;20006;-78
2024/01/28 04:25:40;;;;;;;7.13;3.63;;;13.40;99.90;;;;;;4593906;19;20002;-78
2024/01/28 04:27:16;;;;;;;7.83;4.10;;;13.40;99.90;;;;;;4593413;19;20002;-78
2024/01/28 04:28:52;;;;;;;8.67;4.33;;;13.40;99.90;;;;;;4593556;19;20448;-78
2024/01/28 04:30:25;;;;;;;9.47;5.00;;;13.40;99.90;;;;;;4592448;19;20026;-78
2024/01/28 04:32:01;;;;;;;7.77;4.30;;;13.50;99.90;;;;;;4593079;19;20014;-78
2024/01/28 04:33:34;;;;;;;9.17;3.97;;;13.50;99.90;;;;;;4593679;19;20013;-78
2024/01/28 04:35:17;;;;;;;8.23;3.30;;;13.50;99.90;;;;;;4593365;19;20078;-78
2024/01/28 04:36:52;;;;;;;8.20;3.50;;;13.50;99.90;;;;;;4593458;19;20010;-78
2024/01/28 04:38:26;;;;;;;7.30;4.03;;;13.50;99.90;;;;;;4592561;19;20002;-78
2024/01/28 04:40:00;;;;;;;7.07;4.03;;;13.50;99.90;;;;;;4593304;19;20429;-78
2024/01/28 04:41:35;;;;;;;7.17;3.83;;;13.50;99.90;;;;;;4593220;19;20017;-78
2024/01/28 04:43:10;;;;;;;8.93;4.17;;;13.50;99.90;;;;;;4593279;19;20069;-78
2024/01/28 04:44:46;;;;;;;7.77;3.90;;;13.50;99.90;;;;;;4592026;19;20433;-78
2024/01/28 04:46:22;;;;;;;8.00;3.87;;;13.50;99.90;;;;;;4591960;19;20002;-78
2024/01/28 04:47:56;;;;;;;8.70;4.37;;;13.60;99.90;;;;;;4592077;19;20014;-78
2024/01/28 04:49:31;;;;;;;8.00;3.90;;;13.60;99.90;;;;;;4591787;19;20457;-78
2024/01/28 04:51:06;;;;;;;9.13;4.27;;;13.60;99.90;;;;;;4591806;19;20291;-78
2024/01/28 04:52:40;;;;;;;8.23;4.00;;;13.60;99.90;;;;;;4591617;19;20010;-78
2024/01/28 04:54:14;;;;;;;10.87;4.67;;;13.60;99.90;;;;;;4590953;19;20089;-78
2024/01/28 04:55:50;;;;;;;7.87;4.13;;;13.60;99.90;;;;;;4593101;19;20089;-78
2024/01/28 04:57:23;;;;;;;9.47;4.40;;;13.60;99.90;;;;;;4592709;19;20025;-78
2024/01/28 04:58:58;;;;;;;12.73;5.33;;;13.60;99.90;;;;;;4591559;19;20098;-78
2024/01/28 05:00:33;;;;;;;12.40;5.40;;;13.60;99.90;;;;;;4592652;19;20106;-79
2024/01/28 05:02:08;;;;;;;7.97;3.80;;;13.60;99.90;;;;;;4593198;19;20416;-78
2024/01/28 05:03:42;;;;;;;15.43;6.47;;;13.60;99.90;;;;;;4591565;19;20019;-78
2024/01/28 05:05:17;;;;;;;22.70;10.70;;;13.60;99.90;;;;;;4592473;19;20045;-78
2024/01/28 05:06:51;;;;;;;15.20;6.30;;;13.60;99.90;;;;;;4592822;19;20319;-78
2024/01/28 05:08:25;;;;;;;13.77;5.27;;;13.60;99.90;;;;;;4592075;19;20002;-78
2024/01/28 05:10:00;;;;;;;8.67;3.53;;;13.60;99.90;;;;;;4593107;19;20313;-78
2024/01/28 05:11:35;;;;;;;8.30;3.30;;;13.60;99.90;;;;;;4592964;19;20429;-78
2024/01/28 05:13:09;;;;;;;24.20;9.80;;;13.60;99.90;;;;;;4592942;19;20309;-78
2024/01/28 05:14:44;;;;;;;18.77;8.13;;;13.60;99.90;;;;;;4592689;19;20019;-78
2024/01/28 05:16:18;;;;;;;20.07;7.37;;;13.60;99.90;;;;;;4592660;19;20293;-78
2024/01/28 05:17:53;;;;;;;18.70;8.13;;;13.60;99.90;;;;;;4591982;19;20028;-78
2024/01/28 05:19:29;;;;;;;17.57;7.03;;;13.60;99.90;;;;;;4591495;19;20006;-78
2024/01/28 05:21:03;;;;;;;21.00;9.20;;;13.60;99.90;;;;;;4592032;19;20018;-78
2024/01/28 05:22:40;;;;;;;36.50;14.07;;;13.60;99.90;;;;;;4592466;19;20013;-78
2024/01/28 05:24:16;;;;;;;31.63;11.00;;;13.70;99.90;;;;;;4590536;19;20018;-78
2024/01/28 05:25:49;;;;;;;18.27;5.90;;;13.70;99.90;;;;;;4592394;19;19999;-78
2024/01/28 05:27:24;;;;;;;30.40;11.80;;;13.60;99.90;;;;;;4592007;19;20051;-78
2024/01/28 05:29:05;;;;;;;24.63;10.57;;;13.60;99.90;;;;;;4592721;19;20463;-78
2024/01/28 05:30:38;;;;;;;13.00;5.63;;;13.70;99.90;;;;;;4592360;19;20014;-78
2024/01/28 05:32:13;;;;;;;14.73;6.17;;;13.60;99.90;;;;;;4591038;19;20005;-78
2024/01/28 05:33:48;;;;;;;16.30;5.90;;;13.60;99.90;;;;;;4591022;19;20017;-78
2024/01/28 05:35:22;;;;;;;17.37;6.97;;;13.60;99.90;;;;;;4592235;19;19998;-78
2024/01/28 05:36:55;;;;;;;19.50;8.93;;;13.60;99.90;;;;;;4591207;19;20341;-78
2024/01/28 05:38:30;;;;;;;11.53;5.47;;;13.60;99.90;;;;;;4591069;19;20014;-78
2024/01/28 05:40:05;;;;;;;11.50;5.23;;;13.60;99.90;;;;;;4592474;19;20421;-78
2024/01/28 05:41:40;;;;;;;11.53;5.03;;;13.60;99.90;;;;;;4592418;19;20002;-78
2024/01/28 05:43:17;;;;;;;16.53;6.77;;;13.60;99.90;;;;;;4592502;19;20006;-77
2024/01/28 05:44:51;;;;;;;13.67;5.67;;;13.60;99.90;;;;;;4591103;19;19998;-78
2024/01/28 05:46:26;;;;;;;14.43;5.87;;;13.60;99.90;;;;;;4590724;19;19998;-78
2024/01/28 05:48:05;;;;;;;10.67;5.03;;;13.70;99.90;;;;;;4589954;19;20010;-77
2024/01/28 05:49:39;;;;;;;12.10;5.30;;;13.70;99.90;;;;;;4591749;19;20007;-79
2024/01/28 05:51:13;;;;;;;10.70;3.83;;;13.70;99.90;;;;;;4592322;19;19998;-79
2024/01/28 05:52:48;;;;;;;14.70;5.77;;;13.70;99.90;;;;;;4592270;19;20009;-78
2024/01/28 05:54:23;;;;;;;17.83;7.60;;;13.70;99.90;;;;;;4590835;19;20041;-78
2024/01/28 05:55:57;;;;;;;15.97;6.50;;;13.70;99.90;;;;;;4591835;19;20002;-78
2024/01/28 05:57:31;;;;;;;11.37;4.80;;;13.70;99.90;;;;;;4591576;19;20007;-74
2024/01/28 05:59:05;;;;;;;17.90;7.83;;;13.70;99.90;;;;;;4592125;19;20002;-76
2024/01/28 06:00:40;;;;;;;13.33;5.20;;;13.70;99.90;;;;;;4591843;19;20025;-78
2024/01/28 06:02:15;;;;;;;10.20;3.63;;;13.70;99.90;;;;;;4591767;19;20345;-77
2024/01/28 06:03:51;;;;;;;6.60;3.03;;;13.80;99.90;;;;;;4591454;19;20051;-79
2024/01/28 06:05:34;;;;;;;6.93;2.43;;;13.80;99.90;;;;;;4593357;19;20011;-78
2024/01/28 06:07:49;;;;;;;7.03;3.27;;;13.90;99.90;;;;;;4595859;19;20422;-78
2024/01/28 06:09:23;;;;;;;8.47;3.57;;;13.90;99.90;;;;;;4596701;19;20006;-78
2024/01/28 06:10:59;;;;;;;8.07;3.63;;;13.90;99.90;;;;;;4595116;19;20003;-78
2024/01/28 06:12:33;;;;;;;8.07;4.03;;;14.00;99.90;;;;;;4594689;19;20018;-78
2024/01/28 06:14:08;;;;;;;11.03;4.90;;;13.90;99.90;;;;;;4596315;19;19998;-78
2024/01/28 06:15:44;;;;;;;11.60;4.40;;;14.00;99.90;;;;;;4596837;19;20011;-78
2024/01/28 06:17:17;;;;;;;10.10;3.87;;;14.00;99.90;;;;;;4596037;19;19998;-78
2024/01/28 06:18:51;;;;;;;7.57;3.30;;;14.00;99.90;;;;;;4596304;19;20006;-79
2024/01/28 06:20:27;;;;;;;8.33;3.73;;;14.00;99.90;;;;;;4596582;19;20007;-78
2024/01/28 06:22:02;;;;;;;9.43;4.60;;;14.00;99.90;;;;;;4596249;19;20028;-78
2024/01/28 06:23:37;;;;;;;8.20;3.50;;;14.00;99.90;;;;;;4595130;19;20002;-79
2024/01/28 06:25:13;;;;;;;9.00;4.63;;;14.00;99.90;;;;;;4596169;19;20003;-78
2024/01/28 06:26:48;;;;;;;8.37;4.17;;;14.00;99.90;;;;;;4596003;19;20446;-78
2024/01/28 06:28:21;;;;;;;7.70;4.30;;;13.90;99.90;;;;;;4594607;19;20002;-78
2024/01/28 06:29:57;;;;;;;10.57;4.20;;;13.90;99.90;;;;;;4595960;19;20021;-78
2024/01/28 06:31:31;;;;;;;11.23;5.03;;;13.90;99.90;;;;;;4596306;19;20418;-78
2024/01/28 06:33:05;;;;;;;10.43;5.13;;;13.90;99.90;;;;;;4596191;19;20002;-78
2024/01/28 06:34:40;;;;;;;9.50;5.40;;;13.90;99.90;;;;;;4596206;19;20006;-78
2024/01/28 06:36:23;;;;;;;11.53;6.30;;;13.80;99.90;;;;;;4596369;19;20417;-78
2024/01/28 06:37:57;;;;;;;11.47;6.20;;;13.80;99.90;;;;;;4594858;19;20006;-78
2024/01/28 06:39:32;;;;;;;10.30;6.67;;;13.80;99.90;;;;;;4595811;19;20433;-78
2024/01/28 06:41:06;;;;;;;13.23;7.00;;;13.80;99.90;;;;;;4594738;19;20036;-78
2024/01/28 06:42:40;;;;;;;13.40;8.00;;;13.80;99.90;;;;;;4595451;19;20013;-78
2024/01/28 06:44:15;;;;;;;31.17;17.47;;;13.80;99.90;;;;;;4594907;19;19999;-78
2024/01/28 06:45:49;;;;;;;28.97;15.63;;;13.80;99.90;;;;;;4594367;19;20058;-78
2024/01/28 06:47:24;;;;;;;19.33;11.53;;;13.80;99.90;;;;;;4594797;19;20007;-78
2024/01/28 06:48:58;;;;;;;18.50;11.23;;;13.90;99.90;;;;;;4595903;19;20002;-78
2024/01/28 06:50:33;;;;;;;24.23;15.37;;;13.90;99.90;;;;;;4594562;19;20070;-79
2024/01/28 06:52:07;;;;;;;24.53;17.30;;;13.90;99.90;;;;;;4595333;19;19998;-78
2024/01/28 06:53:44;;;;;;;20.70;12.40;;;14.00;99.90;;;;;;4595923;19;20007;-78
2024/01/28 06:55:18;;;;;;;21.03;13.77;;;14.00;99.90;;;;;;4595820;19;20331;-79
2024/01/28 06:56:52;;;;;;;20.57;14.50;;;14.00;99.90;;;;;;4595763;19;20297;-79
2024/01/28 06:58:27;;;;;;;20.63;13.47;;;14.00;99.90;;;;;;4594268;19;20002;-78
2024/01/28 07:00:04;;;;;;;20.63;11.60;;;14.00;99.90;;;;;;4595488;19;20002;-81
2024/01/28 07:01:41;;;;;;;22.33;12.23;;;14.00;99.90;;;;;;4594225;19;20006;-80
2024/01/28 07:03:17;;;;;;;20.67;12.93;;;14.00;99.90;;;;;;4594674;19;20033;-79
2024/01/28 07:04:51;;;;;;;15.97;9.37;;;14.00;99.90;;;;;;4593575;19;20386;-79
2024/01/28 07:06:26;;;;;;;27.60;18.17;;;14.00;99.90;;;;;;4595524;19;20005;-78
2024/01/28 07:08:01;;;;;;;23.87;15.00;;;14.00;99.90;;;;;;4593283;19;20422;-80
2024/01/28 07:09:35;;;;;;;18.30;11.67;;;13.90;99.90;;;;;;4593917;19;20062;-78
2024/01/28 07:11:08;;;;;;;19.23;13.30;;;13.90;99.90;;;;;;4595143;19;20025;-79
2024/01/28 07:12:43;;;;;;;36.90;26.27;;;13.90;99.90;;;;;;4595159;19;20029;-75
2024/01/28 07:14:17;;;;;;;155.23;114.90;;;13.90;99.90;;;;;;4593784;19;19998;-76
2024/01/28 07:15:51;;;;;;;40.47;27.77;;;13.90;99.90;;;;;;4594710;19;20002;-76
2024/01/28 07:17:27;;;;;;;53.53;35.17;;;13.90;99.90;;;;;;4592824;19;20017;-75
2024/01/28 07:19:02;;;;;;;25.93;17.63;;;13.90;99.90;;;;;;4595177;19;20013;-75
2024/01/28 07:20:37;;;;;;;35.23;18.93;;;13.90;99.90;;;;;;4595269;19;19998;-76
2024/01/28 07:22:12;;;;;;;24.43;15.10;;;13.80;99.90;;;;;;4595513;19;20007;-76
2024/01/28 07:23:46;;;;;;;54.43;25.17;;;13.90;99.90;;;;;;4594654;19;20079;-76
2024/01/28 07:25:20;;;;;;;21.43;13.17;;;13.90;99.90;;;;;;4595141;19;20010;-76
2024/01/28 07:26:55;;;;;;;15.83;10.10;;;13.90;99.90;;;;;;4594865;19;20002;-75
2024/01/28 07:28:29;;;;;;;11.00;7.70;;;13.80;99.90;;;;;;4593425;19;20006;-76
2024/01/28 07:30:04;;;;;;;19.47;11.60;;;13.90;99.90;;;;;;4593425;19;20426;-76
2024/01/28 07:31:40;;;;;;;18.40;11.10;;;13.90;99.90;;;;;;4594555;19;20014;-76
2024/01/28 07:33:15;;;;;;;12.33;8.17;;;13.90;99.90;;;;;;4594754;19;20006;-76
2024/01/28 07:34:50;;;;;;;11.67;6.40;;;13.80;99.90;;;;;;4595063;19;20291;-77
2024/01/28 07:36:25;;;;;;;10.47;7.57;;;13.80;99.90;;;;;;4594776;19;20006;-79
2024/01/28 07:38:00;;;;;;;11.27;8.07;;;13.80;99.90;;;;;;4592387;19;19999;-79
2024/01/28 07:39:34;;;;;;;59.03;40.47;;;13.80;99.90;;;;;;4594263;19;20021;-78
2024/01/28 07:41:14;;;;;;;85.77;56.17;;;13.80;99.90;;;;;;4593474;19;20073;-78
2024/01/28 07:42:49;;;;;;;34.57;25.43;;;13.80;99.90;;;;;;4594640;19;20003;-78
2024/01/28 07:44:23;;;;;;;38.77;22.93;;;13.80;99.90;;;;;;4592574;19;20139;-78
2024/01/28 07:45:58;;;;;;;42.00;24.30;;;13.80;99.90;;;;;;4594155;19;20363;-79
2024/01/28 07:47:32;;;;;;;33.90;17.97;;;13.80;99.90;;;;;;4593877;19;20086;-79
2024/01/28 07:49:07;;;;;;;28.60;15.63;;;13.80;99.90;;;;;;4594336;19;20437;-79
2024/01/28 07:50:43;;;;;;;24.47;15.10;;;13.80;99.90;;;;;;4594700;19;20006;-79
2024/01/28 07:52:18;;;;;;;29.03;18.57;;;13.70;99.90;;;;;;4594643;19;20058;-79
2024/01/28 07:53:53;;;;;;;25.23;15.83;;;13.70;99.90;;;;;;4594019;19;20006;-78
2024/01/28 07:55:28;;;;;;;21.83;12.77;;;13.70;99.90;;;;;;4593995;19;20007;-77
2024/01/28 07:57:03;;;;;;;20.37;12.87;;;13.70;99.90;;;;;;4594055;19;20345;-79
2024/01/28 07:58:36;;;;;;;19.90;11.87;;;13.70;99.90;;;;;;4592806;19;20023;-77
2024/01/28 08:00:12;;;;;;;25.67;16.13;;;13.70;99.90;;;;;;4593992;19;20089;-78
2024/01/28 08:01:46;;;;;;;24.57;16.13;;;13.70;99.90;;;;;;4594129;19;20074;-78
2024/01/28 08:03:21;;;;;;;35.63;22.13;;;13.60;99.90;;;;;;4594227;19;20025;-79
2024/01/28 08:04:56;;;;;;;34.67;21.90;;;13.60;99.90;;;;;;4592538;19;20032;-79
2024/01/28 08:06:31;;;;;;;39.57;23.70;;;13.60;99.90;;;;;;4594154;19;20006;-78
2024/01/28 08:08:05;;;;;;;34.43;21.07;;;13.60;99.90;;;;;;4592904;19;20006;-79
2024/01/28 08:09:40;;;;;;;28.53;18.53;;;13.60;99.90;;;;;;4594035;19;20406;-79
2024/01/28 08:11:15;;;;;;;35.00;19.63;;;13.60;99.90;;;;;;4593672;19;20010;-81
2024/01/28 08:12:50;;;;;;;27.47;17.73;;;13.60;99.90;;;;;;4593805;19;20018;-79
2024/01/28 08:14:27;;;;;;;24.87;15.67;;;13.60;99.90;;;;;;4594024;19;20003;-79
2024/01/28 08:16:03;;;;;;;30.40;19.47;;;13.60;99.90;;;;;;4592810;19;20086;-79
2024/01/28 08:17:37;;;;;;;36.23;23.43;;;13.60;99.90;;;;;;4592941;19;20014;-79
2024/01/28 08:19:11;;;;;;;32.50;20.60;;;13.70;99.90;;;;;;4593599;19;20007;-78
2024/01/28 08:20:46;;;;;;;32.83;20.97;;;13.70;99.90;;;;;;4593689;19;20013;-79
2024/01/28 08:22:20;;;;;;;27.40;17.53;;;13.70;99.90;;;;;;4593870;19;20002;-79
2024/01/28 08:23:54;;;;;;;26.50;17.60;;;13.70;99.90;;;;;;4592324;19;20006;-78
2024/01/28 08:25:31;;;;;;;30.60;18.90;;;13.70;99.90;;;;;;4592426;19;20010;-79